MST,Max TemperatureF,Mean TemperatureF,Min TemperatureF,Max Dew PointF,MeanDew PointF,Min DewpointF,Max Humidity, Mean Humidity, Min Humidity, Max Sea Level PressureIn, Mean Sea Level PressureIn, Min Sea Level PressureIn, Max VisibilityMiles, Mean VisibilityMiles, Min VisibilityMiles, Max Wind SpeedMPH, Mean Wind SpeedMPH, Max Gust SpeedMPH,PrecipitationIn, CloudCover, Events, WindDirDegrees
2012-12-1,56,47,37,33,30,25,76,57,38,29.74,29.67,29.61,10,10,10,31,16,40,0.00,1,,210
2012-12-2,58,46,34,41,31,21,82,63,43,29.65,29.40,29.19,10,10,10,32,17,41,0.01,3,,214
2012-12-3,48,43,37,23,22,21,52,43,34,30.07,29.92,29.69,10,10,10,39,22,45,0.00,0,,227
2012-12-4,55,46,36,33,27,19,60,49,38,30.10,29.91,29.73,10,10,10,37,20,47,T,2,,201
2012-12-5,55,44,32,34,22,11,50,36,22,30.06,29.78,29.59,10,9,2,45,23,55,0.00,0,,246
2012-12-6,36,32,27,19,16,14,59,50,40,30.09,30.03,29.95,10,10,10,17,11,21,0.00,4,,230
2012-12-7,40,34,28,25,18,13,78,56,33,29.96,29.83,29.65,10,10,10,25,13,30,0.00,4,,229
2012-12-8,30,14,-2,25,10,-4,87,82,76,30.47,29.98,29.58,10,3,0,33,7,41,0.21,7,Fog-Snow,316
2012-12-9,30,11,-8,16,-1,-12,87,72,57,30.50,30.26,29.99,10,6,0,32,15,37,0.00,0,Fog,214
2012-12-10,35,29,23,21,17,13,68,62,56,30.05,30.00,29.84,10,10,10,26,14,32,0.00,3,,243
2012-12-11,42,34,26,27,24,17,75,62,49,29.91,29.63,29.51,10,10,10,33,22,43,0.00,3,,218
2012-12-12,40,34,27,29,26,23,84,72,59,29.91,29.71,29.54,10,8,1,20,6,24,T,8,Snow,331
2012-12-13,38,31,23,25,18,13,84,64,44,29.93,29.85,29.66,10,10,6,29,16,33,0.00,1,,220
2012-12-14,43,32,20,21,17,12,74,57,39,29.86,29.73,29.49,20,10,10,25,13,33,0.00,0,,228
2012-12-15,36,26,16,18,14,10,80,62,44,29.94,29.81,29.62,10,10,10,23,12,28,0.00,0,,206
2012-12-16,37,32,26,17,14,12,63,50,37,29.72,29.65,29.56,10,10,10,31,18,38,0.00,1,,216
2012-12-17,43,37,30,26,19,11,64,52,39,29.54,29.40,29.30,10,10,10,30,17,37,0.00,2,,212
2012-12-18,32,22,12,13,8,4,67,49,31,29.98,29.77,29.52,10,10,10,29,17,36,0.00,5,,241
2012-12-19,32,22,12,9,7,5,67,50,32,30.09,30.04,29.97,10,10,10,35,18,43,0.00,0,,215
2012-12-20,44,37,29,17,12,7,42,36,29,30.02,29.95,29.88,10,10,10,37,25,45,0.00,0,,201
2012-12-21,50,32,14,18,12,7,74,49,23,30.14,29.97,29.89,10,10,8,26,12,32,0.00,4,,224
2012-12-22,14,13,11,9,7,6,84,79,73,30.22,30.08,29.87,10,5,2,14,7,16,T,8,Snow,37
2012-12-23,19,11,3,10,6,-2,84,76,67,30.17,30.05,29.85,10,7,1,15,7,17,0.01,6,Snow,48
2012-12-24,4,-1,-7,-2,-6,-11,87,76,65,30.58,30.22,29.93,10,3,1,10,5,12,0.22,8,Snow,339
2012-12-25,6,-1,-8,-4,-7,-11,82,75,68,30.55,30.30,29.89,10,9,2,9,3,10,0.00,6,,53
2012-12-26,7,2,-3,0,-4,-8,86,78,69,30.15,29.94,29.74,10,7,1,7,1,8,0.04,7,Snow,42
2012-12-27,24,11,-4,15,5,-9,84,74,64,30.11,30.07,30.01,10,10,9,12,3,,0.00,2,,221
2012-12-28,32,23,14,18,13,7,74,66,58,30.17,30.08,29.89,10,10,10,15,10,16,0.00,2,,221
2012-12-29,32,26,19,21,15,11,68,59,50,30.14,30.08,29.95,10,8,1,22,11,25,0.02,3,Snow,208
2012-12-30,27,19,10,21,16,6,88,75,62,30.23,30.11,29.97,10,6,2,15,10,16,0.04,5,Snow,220
2012-12-31,29,22,14,18,12,6,73,65,56,30.24,30.18,30.04,10,10,10,23,16,26,0.00,5,,209